AirNav   Air Wisconsin pilot careers
 
 1635 users online  

96G Cowley Field Airport
Sandusky, Michigan, USA

GOING TO SANDUSKY?


FAA INFORMATION EFFECTIVE 29 MARCH 2018

Location

FAA Identifier: 96G
Lat/Long: 43-22-32.6000N / 082-49-07.8000W
43-22.543333N / 082-49.130000W
43.3757222 / -82.8188333
(estimated)
Elevation: 770 ft. / 235 m (estimated)
Variation: 07W (1985)
From city: 3 miles S of SANDUSKY, MI
Time zone: UTC -4 (UTC -5 during Standard Time)
Zip code: 48471

Airport Operations

Airport use: Open to the public
Activation date: 04/1971
Control tower: no
ARTCC: CLEVELAND CENTER
FSS: LANSING FLIGHT SERVICE STATION
NOTAMs facility: LAN (NOTAM-D service available)
Attendance: IREG
SNOW REMOVAL IREG; VERIFY COND - CALL 810-648-2352.
Wind indicator: yes
Segmented circle: no

Airport Communications

CTAF: 122.9

Airport Services

Parking: tiedowns
Airframe service: NONE
Powerplant service: NONE
Bottled oxygen: NONE
Bulk oxygen: NONE

Runway Information

Runway 9/27

Dimensions: 2600 x 60 ft. / 792 x 18 m
Surface: turf, in good condition
Runway edge markings: RY MARKED WITH CONES.
RUNWAY 9  RUNWAY 27
Latitude: 43-22.536667N43-22.550000N
Longitude: 082-49.423333W082-48.836667W
Elevation: 770.0 ft.768.0 ft.
Traffic pattern: leftleft
Runway heading: 095 magnetic, 088 true275 magnetic, 268 true
Runway end identifier lights: nono
Obstructions: 53 ft. tree, 1089 ft. from runway, 20:1 slope to clear150 ft. pline, 5500 ft. from runway, 36:1 slope to clear

Airport Ownership and Management from official FAA records

Ownership: Privately-owned
Owner: DALE COWLEY
1515 SO SANDUSKY RD
SANDUSKY, MI 48471
Phone 810-648-2352
Manager: DALE COWLEY
1515 SO SANDUSKY RD
SANDUSKY, MI 48471
Phone 810-648-2352
AMGR LIVES AT ARPT.

Airport Operational Statistics

Aircraft based on the field: 1
Single engine airplanes: 1
    
Aircraft operations: 60/year *
83% transient general aviation
17% local general aviation
* for 12-month period ending 31 December 2015

Additional Remarks

DEER & TURKEYS ON & INVOF ARPT.
BE ALERT FOR CLOSE PROXIMITY OF POWER POLES ALONG TWY ON W END.

Instrument Procedures

There are no published instrument procedures at 96G.

Some nearby airports with instrument procedures:

77G - Marlette Airport (12 nm W)
KBAX - Huron County Memorial Airport (25 nm N)
D95 - Dupont-Lapeer Airport (27 nm SW)
KCFS - Tuscola Area Airport (28 nm W)
KPHN - St Clair County International Airport (31 nm SE)
 
Loc | Ops | Rwys | IFR | FBO | Links
Com | Nav | Svcs | Stats | Notes

AirNav Hotels Sweepstakes
 
Area around 96G (Cowley Field Airport)
 
Road maps at: MapQuest Bing Google
 
Aerial photo
WARNING: Photo may not be current or correct
Aerial photo of 96G (Cowley Field Airport)
Photo by Roy Carlson, Plainwell, MI

Do you have a better or more recent aerial photo of Cowley Field Airport that you would like to share? If so, please send us your photo.

 
Sectional chart

 
Airport distance calculator
Flying to Cowley Field Airport? Find the distance to fly.

From to 96G

Sunrise and sunset
Times for 24-Apr-2018
 Local
(UTC-4)
 Zulu
(UTC)
Morning civil twilight06:0510:05
Sunrise06:3610:36
Sunset20:2300:23
Evening civil twilight20:5400:54

Current date and time
Zulu (UTC)  24-Apr-2018 14:39:25
Local (UTC-4)  24-Apr-2018 10:39:25
 
METAR
KBAX 
25nm N 
241416Z AUTO 12007KT 10SM OVC070 15/06 A3015 RMK AO2 T01510064
KD95 
27nm SW 
241415Z AUTO 15004KT 10SM OVC060 14/08 A3012 RMK AO2 T01420077
KCFS 
28nm W 
241415Z AUTO 15006KT 10SM BKN045 BKN085 OVC110 15/07 A3012 RMK AO2 T01500071
KPHN 
31nm SE 
241416Z AUTO 13010KT 10SM SCT070 16/06 A3014 RMK AO2
CYZR 
32nm SE 
241400Z AUTO 14013G20KT 9SM BKN095 OVC140 16/07 A3013 RMK SLP208
KP58 
38nm N 
241351Z AUTO 13003KT 09/07 A3013 RMK AO1 SLP206 T00940072
KMTC 
46nm S 
241356Z 10010KT 10SM OVC065 14/11 A3012 RMK AO2A SLP205 T01440106
KHYX 
46nm W 
241415Z AUTO 16006KT 10SM BKN040 OVC047 14/08 A3012 RMK AO2
KFNT 
48nm SW 
241353Z 13009KT 10SM OVC043 13/08 A3012 RMK AO2 RAE1256 SLP200 P0000 T01280083
KPTK 
50nm SW 
241353Z 11012KT 10SM FEW022 BKN050 OVC200 14/07 A3010 RMK AO2 SLP193 T01440072
TAF
CYZR 
32nm SE 
241340Z 2414/2502 14008KT P6SM SCT080 OVC100 TEMPO 2414/2418 BKN040 OVC080 BECMG 2414/2416 15012KT FM241800 15012KT P6SM BKN025 OVC080 TEMPO 2418/2422 BKN020 FM242200 13010KT 5SM -RA BR OVC020 RMK FCST BASED ON AUTO OBS. NXT FCST BY 242000Z
NOTAMs
Click for the latest NOTAMs
NOTAMs are issued by the DoD/FAA and will open in a separate window not controlled by AirNav.

 

 
 

Would you like to see your business listed on this page?

 If your business provides an interesting product or service to pilots, flight crews, aircraft, or users of the Cowley Field Airport, you should consider listing it here.  To start the listing process, click on the button below
 
Add a business
 

Other Pages about Cowley Field Airport

Page from the Michigan Airport Directory (PDF)
 
Update a link
 
Copyright © AirNav, LLC. All rights reserved. Privacy Policy  Contact